NO-0071 weather

Hurdal Airstrip
Akershus, Norway

Public forecast

Using degrees Celsius for public forecast. Weather courtesy of forecast.io.

Closest aviation weather report (METAR) to Hurdal Airstrip

Closest report is Oslo Gardermoen Airport, 10.1 nm (18.7 km) S. Retrieved 2020/05/26 19:20 UTC (24 minutes ago):

ENGM 261920Z 19007KT CAVOK 15/08 Q1028 NOSIG

Closest aviation forecast (TAF) to Hurdal Airstrip

Closest forecast is Oslo Gardermoen Airport, 10.1 nm (18.7 km) S. Retrieved 2020/05/26 18:57 UTC (47 minutes ago):

TAF ENGM 261700Z 2618/2718 19010KT CAVOK BECMG 2618/2620 VRB05KT BECMG 2704/2706 34010KT